Time;durP1;ratioP1;P1;durP2;ratioP2;P2;SDS_P1;SDS_P2;PMS_P1;PMS_P2;Temp;Humidity;BMP_temperature;BMP_pressure;BME280_temperature;BME280_humidity;BME280_pressure;Samples;Min_cycle;Max_cycle;Signal;HPM_P1;HPM_P2
2021/12/30 12:06:44;;;;;;;9.32;2.63;;;;;;;;;;4993809;23;20518;-60
2021/12/30 12:09:13;;;;;;;7.55;2.17;;;;;;;;;;4972155;28;21123;-60
2021/12/30 12:11:42;;;;;;;8.82;2.58;;;;;;;;;;4973862;28;20388;-60
2021/12/30 12:14:14;;;;;;;8.60;2.63;;;;;;;;;;4975022;28;20380;-61
2021/12/30 12:16:47;;;;;;;6.38;2.17;;;;;;;;;;4973375;28;20411;-60
2021/12/30 12:19:14;;;;;;;6.75;2.50;;;;;;;;;;4973880;28;20379;-62
2021/12/30 12:21:41;;;;;;;6.43;2.28;;;;;;;;;;4972914;28;20376;-61
2021/12/30 12:24:28;;;;;;;7.72;2.20;;;;;;;;;;4975146;28;20384;-60
2021/12/30 12:26:58;;;;;;;5.50;2.15;;;;;;;;;;4974818;28;20488;-61
2021/12/30 12:29:32;;;;;;;6.32;2.10;;;;;;;;;;4970557;28;20416;-62
2021/12/30 12:32:19;;;;;;;6.32;2.17;;;;;;;;;;4970485;28;20509;-63
2021/12/30 12:34:53;;;;;;;5.23;1.87;;;;;;;;;;4969862;28;20391;-63
2021/12/30 12:37:40;;;;;;;6.53;1.88;;;;;;;;;;4968716;28;20455;-60
2021/12/30 12:40:10;;;;;;;5.97;2.10;;;;;;;;;;4970783;28;20386;-61
2021/12/30 12:42:51;;;;;;;4.72;1.70;;;;;;;;;;4969571;28;20955;-61
2021/12/30 12:45:20;;;;;;;4.57;1.80;;;;;;;;;;4972359;28;20380;-61
2021/12/30 12:47:48;;;;;;;5.55;1.92;;;;;;;;;;4970917;28;21008;-60
2021/12/30 12:50:14;;;;;;;5.32;2.05;;;;;;;;;;4969327;28;20992;-60
2021/12/30 12:52:44;;;;;;;4.45;1.75;;;;;;;;;;4972626;28;20427;-61
2021/12/30 12:55:16;;;;;;;3.78;1.70;;;;;;;;;;4971809;28;20884;-62
2021/12/30 12:57:42;;;;;;;4.40;1.70;;;;;;;;;;4971406;28;20455;-62
2021/12/30 13:00:12;;;;;;;5.43;2.13;;;;;;;;;;4974108;28;20396;-60
2021/12/30 13:02:38;;;;;;;4.47;1.90;;;;;;;;;;4973553;28;20396;-61
2021/12/30 13:05:12;;;;;;;5.43;2.10;;;;;;;;;;4973447;28;20396;-60
2021/12/30 13:07:39;;;;;;;5.43;2.13;;;;;;;;;;4964300;28;20473;-60
2021/12/30 13:10:10;;;;;;;4.50;1.83;;;;;;;;;;4972022;28;20431;-60
2021/12/30 13:12:39;;;;;;;6.18;2.00;;;;;;;;;;4962549;28;20384;-60
2021/12/30 13:15:15;;;;;;;4.40;1.90;;;;;;;;;;4973744;28;20469;-60
2021/12/30 13:17:47;;;;;;;3.33;1.73;;;;;;;;;;4973181;28;20876;-61
2021/12/30 13:20:17;;;;;;;4.55;1.70;;;;;;;;;;4961493;28;20472;-60
2021/12/30 13:22:49;;;;;;;4.68;1.80;;;;;;;;;;4973176;28;20940;-60
2021/12/30 13:25:20;;;;;;;4.88;1.95;;;;;;;;;;4973458;28;20388;-60
2021/12/30 13:27:50;;;;;;;3.67;1.30;;;;;;;;;;4973700;28;20385;-60
2021/12/30 13:30:19;;;;;;;4.03;1.58;;;;;;;;;;4973504;28;20424;-60
2021/12/30 13:32:48;;;;;;;4.10;1.83;;;;;;;;;;4974022;28;20938;-61
2021/12/30 13:35:27;;;;;;;4.28;1.45;;;;;;;;;;4973020;28;20460;-63
2021/12/30 13:37:58;;;;;;;4.28;1.75;;;;;;;;;;4973925;28;20391;-61
2021/12/30 13:40:32;;;;;;;4.43;1.60;;;;;;;;;;4961425;28;20388;-60
2021/12/30 13:43:04;;;;;;;4.72;1.67;;;;;;;;;;4973738;28;20448;-62
2021/12/30 13:45:32;;;;;;;7.45;2.08;;;;;;;;;;4973806;28;20931;-62
2021/12/30 13:48:04;;;;;;;4.75;1.73;;;;;;;;;;4968659;28;20404;-61
2021/12/30 13:50:31;;;;;;;3.90;1.45;;;;;;;;;;4970301;28;20445;-61
2021/12/30 13:53:00;;;;;;;3.28;1.40;;;;;;;;;;4970879;28;20401;-61
2021/12/30 13:55:28;;;;;;;5.43;1.60;;;;;;;;;;4971454;28;20396;-61
2021/12/30 13:58:06;;;;;;;4.38;1.75;;;;;;;;;;4969291;28;20398;-61
2021/12/30 14:00:38;;;;;;;3.45;1.67;;;;;;;;;;4956765;28;20878;-61
2021/12/30 14:03:08;;;;;;;5.03;1.42;;;;;;;;;;4965580;28;20400;-61
2021/12/30 14:05:35;;;;;;;4.65;1.80;;;;;;;;;;4969063;28;20455;-60
2021/12/30 14:08:06;;;;;;;4.13;1.70;;;;;;;;;;4963863;28;20472;-60
2021/12/30 14:10:46;;;;;;;4.93;1.50;;;;;;;;;;4966795;28;20420;-60
2021/12/30 14:13:12;;;;;;;3.95;1.33;;;;;;;;;;4971307;28;20376;-60
2021/12/30 14:15:38;;;;;;;4.10;1.65;;;;;;;;;;4969947;28;20433;-60
2021/12/30 14:18:09;;;;;;;3.67;1.60;;;;;;;;;;4970048;28;20400;-60
2021/12/30 14:20:39;;;;;;;4.47;1.60;;;;;;;;;;4969619;28;21178;-60
2021/12/30 14:23:05;;;;;;;5.20;1.70;;;;;;;;;;4972178;28;20376;-60
2021/12/30 14:25:39;;;;;;;3.97;1.40;;;;;;;;;;4968862;28;20922;-60
2021/12/30 14:28:23;;;;;;;3.65;1.55;;;;;;;;;;4971742;28;20408;-61
2021/12/30 14:30:52;;;;;;;3.83;1.40;;;;;;;;;;4972740;28;20403;-60
2021/12/30 14:33:29;;;;;;;4.40;1.60;;;;;;;;;;4977225;28;20462;-60
2021/12/30 14:36:10;;;;;;;5.05;1.60;;;;;;;;;;4969804;28;20377;-60
2021/12/30 14:38:36;;;;;;;3.42;1.52;;;;;;;;;;4972315;28;20380;-60
2021/12/30 14:41:16;;;;;;;3.80;1.40;;;;;;;;;;4970938;28;20906;-60
2021/12/30 14:44:01;;;;;;;4.40;1.40;;;;;;;;;;4973163;28;20394;-60
2021/12/30 14:46:27;;;;;;;4.82;1.50;;;;;;;;;;4971289;28;20491;-60
2021/12/30 14:48:57;;;;;;;4.07;1.58;;;;;;;;;;4972257;28;20456;-60
2021/12/30 14:51:30;;;;;;;3.80;1.40;;;;;;;;;;4978640;28;20384;-59
2021/12/30 14:53:56;;;;;;;4.28;1.50;;;;;;;;;;4962660;28;20492;-67
2021/12/30 14:56:22;;;;;;;4.18;1.63;;;;;;;;;;4971967;28;20383;-61
2021/12/30 14:58:48;;;;;;;3.63;1.40;;;;;;;;;;4971387;28;20374;-60
2021/12/30 15:01:15;;;;;;;4.85;1.63;;;;;;;;;;4979706;28;20396;-61
2021/12/30 15:03:43;;;;;;;3.10;1.38;;;;;;;;;;4971419;28;20379;-61
2021/12/30 15:06:11;;;;;;;4.15;1.40;;;;;;;;;;4978852;28;20437;-61
2021/12/30 15:08:41;;;;;;;3.85;1.58;;;;;;;;;;4978135;28;20423;-60
2021/12/30 15:11:07;;;;;;;3.22;1.65;;;;;;;;;;4975156;28;20381;-60
2021/12/30 15:13:33;;;;;;;4.15;1.67;;;;;;;;;;4969693;28;20467;-60
2021/12/30 15:15:59;;;;;;;3.70;1.48;;;;;;;;;;4971705;28;20392;-61
2021/12/30 15:18:25;;;;;;;3.97;1.70;;;;;;;;;;4971909;28;20388;-60
2021/12/30 15:20:51;;;;;;;3.50;1.50;;;;;;;;;;4972236;28;20380;-60
2021/12/30 15:23:22;;;;;;;4.85;1.60;;;;;;;;;;4972119;28;20369;-60
2021/12/30 15:25:49;;;;;;;3.45;1.58;;;;;;;;;;4971764;28;20400;-60
2021/12/30 15:28:15;;;;;;;3.90;1.70;;;;;;;;;;4971539;28;20471;-60
2021/12/30 15:30:41;;;;;;;3.63;1.40;;;;;;;;;;4980446;28;20395;-60
2021/12/30 15:33:07;;;;;;;3.08;1.50;;;;;;;;;;4975678;28;20411;-59
2021/12/30 15:35:37;;;;;;;4.72;1.73;;;;;;;;;;4975705;28;20919;-60
2021/12/30 15:38:03;;;;;;;3.75;1.60;;;;;;;;;;4975821;28;20383;-61
2021/12/30 15:40:29;;;;;;;4.72;1.98;;;;;;;;;;4975972;28;20383;-60
2021/12/30 15:42:56;;;;;;;4.10;1.60;;;;;;;;;;4975748;28;20372;-60
2021/12/30 15:45:23;;;;;;;3.78;1.65;;;;;;;;;;4976244;28;20387;-59
2021/12/30 15:47:49;;;;;;;4.10;1.50;;;;;;;;;;4976073;28;20553;-59
2021/12/30 15:50:16;;;;;;;3.17;1.60;;;;;;;;;;4975700;28;20511;-60
2021/12/30 15:52:43;;;;;;;4.07;1.73;;;;;;;;;;4974804;28;20391;-59
2021/12/30 15:55:11;;;;;;;3.72;1.63;;;;;;;;;;4972842;28;20396;-59
2021/12/30 15:57:37;;;;;;;3.97;1.55;;;;;;;;;;4974265;28;20416;-61
2021/12/30 16:00:06;;;;;;;4.25;1.60;;;;;;;;;;4975184;28;20450;-60
2021/12/30 16:02:32;;;;;;;4.22;1.83;;;;;;;;;;4974203;28;20447;-60
2021/12/30 16:04:58;;;;;;;3.67;1.60;;;;;;;;;;4974892;28;20881;-59
2021/12/30 16:07:24;;;;;;;4.00;1.55;;;;;;;;;;4971265;28;20415;-60
2021/12/30 16:09:52;;;;;;;4.70;1.80;;;;;;;;;;4974682;28;20416;-60
2021/12/30 16:12:19;;;;;;;3.22;1.60;;;;;;;;;;4975375;28;20389;-60
2021/12/30 16:14:45;;;;;;;3.70;1.77;;;;;;;;;;4975213;28;20412;-59
2021/12/30 16:17:11;;;;;;;3.85;1.90;;;;;;;;;;4974428;28;20384;-60
2021/12/30 16:19:40;;;;;;;3.35;1.73;;;;;;;;;;4973920;28;20381;-59
2021/12/30 16:22:06;;;;;;;4.20;1.80;;;;;;;;;;4975071;28;20443;-58
2021/12/30 16:24:35;;;;;;;3.03;1.70;;;;;;;;;;4974799;28;20908;-61
2021/12/30 16:27:06;;;;;;;4.78;2.00;;;;;;;;;;4974469;28;20534;-59
2021/12/30 16:29:33;;;;;;;4.55;2.10;;;;;;;;;;4973445;28;20881;-60
2021/12/30 16:31:59;;;;;;;3.60;2.00;;;;;;;;;;4961036;28;20420;-60
2021/12/30 16:34:33;;;;;;;3.83;2.05;;;;;;;;;;4974515;28;20393;-61
2021/12/30 16:37:05;;;;;;;4.07;2.08;;;;;;;;;;4974971;28;20881;-61
2021/12/30 16:39:31;;;;;;;3.92;1.98;;;;;;;;;;4973562;28;20376;-61
2021/12/30 16:41:57;;;;;;;4.43;1.90;;;;;;;;;;4974703;28;20403;-59
2021/12/30 16:44:23;;;;;;;4.20;1.70;;;;;;;;;;4973371;28;20397;-58
2021/12/30 16:46:49;;;;;;;3.92;1.70;;;;;;;;;;4974736;28;20384;-60
2021/12/30 16:49:22;;;;;;;3.65;1.60;;;;;;;;;;4973559;28;20440;-61
2021/12/30 16:51:48;;;;;;;4.37;2.03;;;;;;;;;;4974349;28;20392;-60
2021/12/30 16:54:14;;;;;;;3.53;1.60;;;;;;;;;;4972709;28;20900;-60
2021/12/30 16:56:41;;;;;;;3.15;1.48;;;;;;;;;;4973886;28;20396;-61
2021/12/30 16:59:09;;;;;;;3.95;1.73;;;;;;;;;;4970655;28;20473;-60
2021/12/30 17:01:36;;;;;;;3.40;1.58;;;;;;;;;;4972989;28;20384;-62
2021/12/30 17:04:03;;;;;;;3.95;1.80;;;;;;;;;;4973350;28;20399;-62
2021/12/30 17:06:30;;;;;;;3.10;1.70;;;;;;;;;;4974528;28;20412;-62
2021/12/30 17:08:56;;;;;;;4.63;1.80;;;;;;;;;;4971484;28;20432;-62
2021/12/30 17:11:22;;;;;;;5.67;2.00;;;;;;;;;;4968200;28;20410;-62
2021/12/30 17:13:48;;;;;;;3.97;1.70;;;;;;;;;;4967476;28;20908;-62
2021/12/30 17:16:16;;;;;;;2.90;1.60;;;;;;;;;;4973545;28;20441;-62
2021/12/30 17:18:45;;;;;;;4.32;2.00;;;;;;;;;;4975055;28;20884;-63
2021/12/30 17:21:17;;;;;;;4.68;1.92;;;;;;;;;;4973107;28;20459;-63
2021/12/30 17:23:45;;;;;;;4.18;1.80;;;;;;;;;;4971439;28;20914;-62
2021/12/30 17:26:13;;;;;;;4.07;2.30;;;;;;;;;;4972982;28;20447;-62
2021/12/30 17:28:39;;;;;;;4.65;2.40;;;;;;;;;;4974103;28;20406;-62
2021/12/30 17:31:05;;;;;;;5.15;2.80;;;;;;;;;;4973828;28;20388;-62
2021/12/30 17:33:33;;;;;;;4.63;2.55;;;;;;;;;;4973660;28;20396;-62
2021/12/30 17:36:02;;;;;;;5.53;2.85;;;;;;;;;;4974083;28;20388;-63
2021/12/30 17:38:31;;;;;;;5.45;2.60;;;;;;;;;;4973618;28;20383;-62
2021/12/30 17:41:01;;;;;;;4.30;2.50;;;;;;;;;;4974690;28;20419;-62
2021/12/30 17:43:27;;;;;;;6.10;2.80;;;;;;;;;;4972090;28;20538;-62
2021/12/30 17:45:55;;;;;;;5.70;2.90;;;;;;;;;;4974143;28;20464;-61
2021/12/30 17:48:33;;;;;;;6.35;3.08;;;;;;;;;;4973930;28;20899;-62
2021/12/30 17:51:02;;;;;;;6.53;3.33;;;;;;;;;;4973762;28;20415;-63
2021/12/30 17:53:31;;;;;;;4.78;2.95;;;;;;;;;;4973236;28;20419;-62
2021/12/30 17:55:57;;;;;;;5.45;3.10;;;;;;;;;;4972562;28;20396;-62
2021/12/30 17:58:23;;;;;;;5.68;3.22;;;;;;;;;;4972552;28;20392;-61
2021/12/30 18:00:55;;;;;;;7.00;3.30;;;;;;;;;;4973455;28;20377;-56
2021/12/30 18:03:22;;;;;;;6.55;3.08;;;;;;;;;;4972729;28;20399;-60
2021/12/30 18:05:50;;;;;;;7.93;3.33;;;;;;;;;;4972850;28;20412;-55
2021/12/30 18:08:23;;;;;;;7.93;3.53;;;;;;;;;;4973912;28;20388;-57
2021/12/30 18:10:49;;;;;;;5.95;3.47;;;;;;;;;;4973701;28;20889;-56
2021/12/30 18:13:18;;;;;;;8.25;3.70;;;;;;;;;;4973225;28;20431;-59
2021/12/30 18:15:46;;;;;;;7.38;3.65;;;;;;;;;;4972895;28;20444;-57
2021/12/30 18:18:13;;;;;;;6.75;3.55;;;;;;;;;;4972986;28;20463;-58
2021/12/30 18:20:41;;;;;;;7.93;3.53;;;;;;;;;;4973433;28;20434;-58
2021/12/30 18:23:10;;;;;;;7.00;3.97;;;;;;;;;;4973035;28;20400;-58
2021/12/30 18:25:41;;;;;;;7.45;3.70;;;;;;;;;;4971810;28;20387;-58
2021/12/30 18:28:08;;;;;;;7.47;3.63;;;;;;;;;;4973065;28;20431;-58
2021/12/30 18:30:37;;;;;;;7.35;3.95;;;;;;;;;;4971778;28;20473;-57
2021/12/30 18:33:06;;;;;;;10.25;3.97;;;;;;;;;;4972663;28;20393;-59
2021/12/30 18:35:32;;;;;;;7.28;3.70;;;;;;;;;;4972968;28;20960;-57
2021/12/30 18:37:59;;;;;;;10.10;3.92;;;;;;;;;;4970873;28;20399;-58
2021/12/30 18:40:27;;;;;;;7.13;3.45;;;;;;;;;;4972986;28;20377;-59
2021/12/30 18:42:56;;;;;;;6.95;3.65;;;;;;;;;;4972877;28;20774;-57
2021/12/30 18:45:25;;;;;;;7.72;3.80;;;;;;;;;;4964535;28;20473;-51
2021/12/30 18:47:58;;;;;;;5.95;3.70;;;;;;;;;;4960922;28;20744;-51
2021/12/30 18:50:25;;;;;;;7.40;3.25;;;;;;;;;;4965635;28;20459;-50
2021/12/30 18:52:51;;;;;;;6.10;3.38;;;;;;;;;;4967528;28;20748;-52
2021/12/30 18:55:19;;;;;;;6.63;3.73;;;;;;;;;;4972032;28;20396;-53
2021/12/30 18:57:45;;;;;;;6.97;3.60;;;;;;;;;;4972744;28;20406;-53
2021/12/30 19:00:15;;;;;;;7.55;3.58;;;;;;;;;;4972342;28;20459;-49
2021/12/30 19:02:41;;;;;;;8.63;3.88;;;;;;;;;;4972768;28;20408;-50
2021/12/30 19:05:09;;;;;;;6.70;3.75;;;;;;;;;;4971129;28;20786;-53
2021/12/30 19:07:38;;;;;;;6.15;3.67;;;;;;;;;;4956083;28;20441;-54
2021/12/30 19:10:04;;;;;;;5.32;3.55;;;;;;;;;;4967300;28;20420;-51
2021/12/30 19:12:32;;;;;;;6.20;3.90;;;;;;;;;;4972323;28;20456;-50
2021/12/30 19:15:01;;;;;;;5.80;4.00;;;;;;;;;;4972221;28;20404;-49
2021/12/30 19:17:27;;;;;;;6.82;4.10;;;;;;;;;;4972131;28;20873;-52
2021/12/30 19:19:56;;;;;;;6.88;4.13;;;;;;;;;;4972251;28;20419;-50
2021/12/30 19:22:24;;;;;;;5.57;4.10;;;;;;;;;;4959857;28;20369;-49
2021/12/30 19:24:50;;;;;;;6.65;4.38;;;;;;;;;;4969958;28;20836;-51
2021/12/30 19:27:16;;;;;;;5.85;4.55;;;;;;;;;;4969797;28;20431;-50
2021/12/30 19:29:42;;;;;;;6.53;4.70;;;;;;;;;;4965667;28;20495;-51
2021/12/30 19:32:08;;;;;;;6.63;4.45;;;;;;;;;;4970655;28;20440;-52
2021/12/30 19:34:35;;;;;;;5.30;4.40;;;;;;;;;;4972448;28;20383;-51
2021/12/30 19:37:04;;;;;;;6.53;5.00;;;;;;;;;;4971516;28;20412;-50
2021/12/30 19:39:30;;;;;;;7.38;4.95;;;;;;;;;;4972087;28;20384;-48
2021/12/30 19:42:01;;;;;;;7.95;4.50;;;;;;;;;;4972071;28;20408;-50
2021/12/30 19:44:32;;;;;;;7.15;4.70;;;;;;;;;;4971976;28;20388;-49
2021/12/30 19:47:01;;;;;;;6.20;4.45;;;;;;;;;;4971784;28;20506;-48
2021/12/30 19:49:30;;;;;;;6.38;4.65;;;;;;;;;;4972123;28;20423;-52
2021/12/30 19:51:56;;;;;;;7.47;4.80;;;;;;;;;;4971948;28;20395;-49
2021/12/30 19:54:22;;;;;;;7.85;4.68;;;;;;;;;;4970952;28;20419;-51
2021/12/30 19:56:51;;;;;;;6.50;4.30;;;;;;;;;;4963194;28;20396;-49
2021/12/30 19:59:17;;;;;;;7.80;4.75;;;;;;;;;;4974088;28;20419;-49
2021/12/30 20:01:43;;;;;;;6.00;4.20;;;;;;;;;;4971624;28;20457;-48
2021/12/30 20:04:10;;;;;;;6.53;4.20;;;;;;;;;;4970758;28;20388;-52
2021/12/30 20:06:36;;;;;;;6.30;4.25;;;;;;;;;;4971413;28;20427;-49
2021/12/30 20:09:03;;;;;;;7.20;4.38;;;;;;;;;;4971245;28;20400;-53
2021/12/30 20:11:30;;;;;;;5.95;3.92;;;;;;;;;;4970705;28;20392;-53
2021/12/30 20:13:56;;;;;;;6.68;4.10;;;;;;;;;;4968736;28;20399;-53
2021/12/30 20:16:22;;;;;;;6.03;3.83;;;;;;;;;;4969047;28;20516;-53
2021/12/30 20:18:48;;;;;;;6.43;3.95;;;;;;;;;;4970003;28;20400;-51
2021/12/30 20:21:16;;;;;;;7.03;4.20;;;;;;;;;;4974619;28;20600;-52
2021/12/30 20:23:45;;;;;;;5.80;3.70;;;;;;;;;;4974641;28;20459;-54
2021/12/30 20:26:11;;;;;;;6.57;3.90;;;;;;;;;;4974866;28;20421;-54
2021/12/30 20:28:37;;;;;;;6.27;4.00;;;;;;;;;;4974624;28;20392;-52
2021/12/30 20:31:04;;;;;;;7.70;3.80;;;;;;;;;;4975122;28;20455;-53
2021/12/30 20:33:33;;;;;;;6.57;4.00;;;;;;;;;;4974871;28;20383;-54
2021/12/30 20:36:01;;;;;;;7.07;4.05;;;;;;;;;;4975017;28;20873;-53
2021/12/30 20:38:30;;;;;;;5.63;3.93;;;;;;;;;;4974748;28;20463;-55
2021/12/30 20:40:56;;;;;;;6.97;3.90;;;;;;;;;;4973783;28;20404;-54
2021/12/30 20:43:24;;;;;;;5.38;3.60;;;;;;;;;;4976082;28;20376;-50
2021/12/30 20:45:53;;;;;;;6.28;3.75;;;;;;;;;;4974634;28;20928;-51
2021/12/30 20:48:22;;;;;;;5.60;3.75;;;;;;;;;;4974216;28;20371;-52
2021/12/30 20:50:48;;;;;;;7.22;4.28;;;;;;;;;;4962293;28;20416;-50
2021/12/30 20:53:14;;;;;;;6.68;3.58;;;;;;;;;;4974326;28;20431;-50
2021/12/30 20:55:41;;;;;;;6.13;3.40;;;;;;;;;;4974511;28;20384;-53
2021/12/30 20:58:08;;;;;;;5.90;3.47;;;;;;;;;;4973318;28;20479;-51
2021/12/30 21:00:35;;;;;;;5.97;3.90;;;;;;;;;;4974238;28;20487;-53
2021/12/30 21:03:01;;;;;;;6.13;3.70;;;;;;;;;;4974922;28;20427;-50
2021/12/30 21:05:31;;;;;;;6.43;3.80;;;;;;;;;;4974691;28;20404;-53
2021/12/30 21:08:03;;;;;;;5.78;3.60;;;;;;;;;;4962149;28;20402;-53
2021/12/30 21:10:29;;;;;;;6.43;3.60;;;;;;;;;;4969129;28;20424;-53
2021/12/30 21:12:55;;;;;;;6.45;3.95;;;;;;;;;;4971308;28;20411;-60
2021/12/30 21:15:21;;;;;;;6.10;3.85;;;;;;;;;;4973671;28;20392;-61
2021/12/30 21:17:48;;;;;;;7.35;4.00;;;;;;;;;;4974125;28;20868;-60
2021/12/30 21:20:15;;;;;;;7.85;3.97;;;;;;;;;;4974826;28;20384;-60
2021/12/30 21:22:42;;;;;;;6.43;3.78;;;;;;;;;;4974435;28;20376;-60
2021/12/30 21:25:09;;;;;;;7.20;4.05;;;;;;;;;;4973018;28;20888;-59
2021/12/30 21:27:35;;;;;;;7.57;3.72;;;;;;;;;;4974211;28;20776;-54
2021/12/30 21:30:03;;;;;;;7.85;3.85;;;;;;;;;;4973788;28;20456;-58
2021/12/30 21:32:32;;;;;;;6.20;3.63;;;;;;;;;;4974224;28;20752;-57
2021/12/30 21:34:58;;;;;;;8.50;3.63;;;;;;;;;;4974218;28;20372;-57
2021/12/30 21:37:24;;;;;;;6.57;3.70;;;;;;;;;;4974182;28;20427;-59
2021/12/30 21:39:50;;;;;;;7.75;3.65;;;;;;;;;;4974022;28;20469;-58
2021/12/30 21:42:17;;;;;;;5.85;3.40;;;;;;;;;;4973771;28;20868;-60
2021/12/30 21:44:43;;;;;;;7.30;3.78;;;;;;;;;;4972866;28;20388;-59
2021/12/30 21:47:11;;;;;;;6.10;3.47;;;;;;;;;;4973992;28;20420;-58
2021/12/30 21:49:37;;;;;;;5.97;3.38;;;;;;;;;;4974051;28;20821;-59
2021/12/30 21:52:04;;;;;;;5.72;3.10;;;;;;;;;;4974042;28;20467;-58
2021/12/30 21:54:31;;;;;;;6.28;3.25;;;;;;;;;;4972444;28;20392;-60
2021/12/30 21:56:57;;;;;;;4.97;3.10;;;;;;;;;;4973237;28;20376;-57
2021/12/30 21:59:23;;;;;;;5.75;3.10;;;;;;;;;;4971897;28;20431;-56
2021/12/30 22:01:50;;;;;;;4.85;2.90;;;;;;;;;;4972380;28;20753;-58
2021/12/30 22:04:16;;;;;;;5.38;3.00;;;;;;;;;;4972533;28;20423;-57
